sensor_id;sensor_type;location;lat;lon;timestamp;P1;durP1;ratioP1;P2;durP2;ratioP2
11514;SDS011;5814;41.936;25.556;2022-11-11T00:00:41;47.43;;;43.07;;
11514;SDS011;5814;41.936;25.556;2022-11-11T00:03:08;48.57;;;43.73;;
11514;SDS011;5814;41.936;25.556;2022-11-11T00:05:35;47.10;;;42.47;;
11514;SDS011;5814;41.936;25.556;2022-11-11T00:08:03;46.83;;;42.43;;
11514;SDS011;5814;41.936;25.556;2022-11-11T00:10:30;47.13;;;42.63;;
11514;SDS011;5814;41.936;25.556;2022-11-11T00:12:59;45.90;;;41.67;;
11514;SDS011;5814;41.936;25.556;2022-11-11T00:15:26;45.97;;;41.67;;
11514;SDS011;5814;41.936;25.556;2022-11-11T00:17:53;46.27;;;41.77;;
11514;SDS011;5814;41.936;25.556;2022-11-11T00:20:25;45.67;;;41.53;;
11514;SDS011;5814;41.936;25.556;2022-11-11T00:22:58;43.13;;;39.20;;
11514;SDS011;5814;41.936;25.556;2022-11-11T00:25:31;43.70;;;39.90;;
11514;SDS011;5814;41.936;25.556;2022-11-11T00:27:58;44.03;;;40.10;;
11514;SDS011;5814;41.936;25.556;2022-11-11T00:30:25;44.10;;;40.00;;
11514;SDS011;5814;41.936;25.556;2022-11-11T00:32:52;44.97;;;40.77;;
11514;SDS011;5814;41.936;25.556;2022-11-11T00:35:19;45.10;;;41.10;;
11514;SDS011;5814;41.936;25.556;2022-11-11T00:37:52;45.63;;;41.53;;
11514;SDS011;5814;41.936;25.556;2022-11-11T00:40:19;46.63;;;42.13;;
11514;SDS011;5814;41.936;25.556;2022-11-11T00:42:46;46.60;;;42.33;;
11514;SDS011;5814;41.936;25.556;2022-11-11T00:45:13;46.57;;;42.37;;
11514;SDS011;5814;41.936;25.556;2022-11-11T00:47:41;46.50;;;42.10;;
11514;SDS011;5814;41.936;25.556;2022-11-11T00:50:16;45.73;;;41.37;;
11514;SDS011;5814;41.936;25.556;2022-11-11T00:52:48;48.67;;;43.70;;
11514;SDS011;5814;41.936;25.556;2022-11-11T00:55:15;45.87;;;41.77;;
11514;SDS011;5814;41.936;25.556;2022-11-11T00:57:42;45.43;;;41.33;;
11514;SDS011;5814;41.936;25.556;2022-11-11T01:00:10;43.37;;;39.47;;
11514;SDS011;5814;41.936;25.556;2022-11-11T01:02:38;44.40;;;40.43;;
11514;SDS011;5814;41.936;25.556;2022-11-11T01:05:05;45.67;;;41.47;;
11514;SDS011;5814;41.936;25.556;2022-11-11T01:07:33;45.17;;;40.97;;
11514;SDS011;5814;41.936;25.556;2022-11-11T01:10:00;43.73;;;39.93;;
11514;SDS011;5814;41.936;25.556;2022-11-11T01:12:27;44.50;;;40.53;;
11514;SDS011;5814;41.936;25.556;2022-11-11T01:14:55;44.83;;;40.83;;
11514;SDS011;5814;41.936;25.556;2022-11-11T01:17:22;44.43;;;40.43;;
11514;SDS011;5814;41.936;25.556;2022-11-11T01:19:49;44.57;;;40.57;;
11514;SDS011;5814;41.936;25.556;2022-11-11T01:22:16;45.33;;;41.20;;
11514;SDS011;5814;41.936;25.556;2022-11-11T01:24:43;43.27;;;39.43;;
11514;SDS011;5814;41.936;25.556;2022-11-11T01:27:10;45.20;;;41.13;;
11514;SDS011;5814;41.936;25.556;2022-11-11T01:29:38;45.23;;;41.23;;
11514;SDS011;5814;41.936;25.556;2022-11-11T01:32:05;43.33;;;39.53;;
11514;SDS011;5814;41.936;25.556;2022-11-11T01:34:32;45.03;;;40.93;;
11514;SDS011;5814;41.936;25.556;2022-11-11T01:36:59;46.27;;;41.97;;
11514;SDS011;5814;41.936;25.556;2022-11-11T01:39:26;47.40;;;43.17;;
11514;SDS011;5814;41.936;25.556;2022-11-11T01:41:53;47.10;;;42.67;;
11514;SDS011;5814;41.936;25.556;2022-11-11T01:47:00;46.40;;;42.20;;
11514;SDS011;5814;41.936;25.556;2022-11-11T01:49:31;47.13;;;42.67;;
11514;SDS011;5814;41.936;25.556;2022-11-11T01:52:04;46.27;;;41.93;;
11514;SDS011;5814;41.936;25.556;2022-11-11T01:54:37;45.57;;;41.37;;
11514;SDS011;5814;41.936;25.556;2022-11-11T01:57:09;44.77;;;40.83;;
11514;SDS011;5814;41.936;25.556;2022-11-11T01:59:34;45.07;;;41.07;;
11514;SDS011;5814;41.936;25.556;2022-11-11T02:02:02;47.63;;;42.73;;
11514;SDS011;5814;41.936;25.556;2022-11-11T02:04:29;44.83;;;40.60;;
11514;SDS011;5814;41.936;25.556;2022-11-11T02:07:02;45.33;;;41.20;;
11514;SDS011;5814;41.936;25.556;2022-11-11T02:09:28;44.67;;;40.67;;
11514;SDS011;5814;41.936;25.556;2022-11-11T02:11:56;44.47;;;40.47;;
11514;SDS011;5814;41.936;25.556;2022-11-11T02:14:28;46.73;;;42.50;;
11514;SDS011;5814;41.936;25.556;2022-11-11T02:17:02;45.83;;;41.63;;
11514;SDS011;5814;41.936;25.556;2022-11-11T02:19:32;44.93;;;41.00;;
11514;SDS011;5814;41.936;25.556;2022-11-11T02:21:58;45.70;;;41.30;;
11514;SDS011;5814;41.936;25.556;2022-11-11T02:24:24;45.17;;;40.90;;
11514;SDS011;5814;41.936;25.556;2022-11-11T02:26:51;44.10;;;40.17;;
11514;SDS011;5814;41.936;25.556;2022-11-11T02:29:18;44.03;;;40.00;;
11514;SDS011;5814;41.936;25.556;2022-11-11T02:31:45;45.53;;;41.23;;
11514;SDS011;5814;41.936;25.556;2022-11-11T02:34:12;43.67;;;39.80;;
11514;SDS011;5814;41.936;25.556;2022-11-11T02:36:39;43.23;;;39.33;;
11514;SDS011;5814;41.936;25.556;2022-11-11T02:39:07;44.63;;;40.53;;
11514;SDS011;5814;41.936;25.556;2022-11-11T02:41:34;44.47;;;40.30;;
11514;SDS011;5814;41.936;25.556;2022-11-11T02:44:07;43.87;;;39.83;;
11514;SDS011;5814;41.936;25.556;2022-11-11T02:46:34;44.13;;;40.03;;
11514;SDS011;5814;41.936;25.556;2022-11-11T02:49:01;45.27;;;41.13;;
11514;SDS011;5814;41.936;25.556;2022-11-11T02:51:28;44.30;;;40.23;;
11514;SDS011;5814;41.936;25.556;2022-11-11T02:53:55;45.17;;;41.07;;
11514;SDS011;5814;41.936;25.556;2022-11-11T02:56:24;44.63;;;40.43;;
11514;SDS011;5814;41.936;25.556;2022-11-11T02:58:56;43.90;;;39.83;;
11514;SDS011;5814;41.936;25.556;2022-11-11T03:01:23;44.87;;;40.73;;
11514;SDS011;5814;41.936;25.556;2022-11-11T03:03:50;43.30;;;39.33;;
11514;SDS011;5814;41.936;25.556;2022-11-11T03:06:18;45.03;;;40.60;;
11514;SDS011;5814;41.936;25.556;2022-11-11T03:08:45;43.63;;;39.77;;
11514;SDS011;5814;41.936;25.556;2022-11-11T03:11:12;43.00;;;39.23;;
11514;SDS011;5814;41.936;25.556;2022-11-11T03:13:39;44.80;;;40.80;;
11514;SDS011;5814;41.936;25.556;2022-11-11T03:16:06;43.37;;;39.47;;
11514;SDS011;5814;41.936;25.556;2022-11-11T03:18:33;45.80;;;41.40;;
11514;SDS011;5814;41.936;25.556;2022-11-11T03:21:01;43.60;;;39.60;;
11514;SDS011;5814;41.936;25.556;2022-11-11T03:23:29;44.90;;;40.90;;
11514;SDS011;5814;41.936;25.556;2022-11-11T03:25:57;43.47;;;39.57;;
11514;SDS011;5814;41.936;25.556;2022-11-11T03:28:24;45.60;;;41.40;;
11514;SDS011;5814;41.936;25.556;2022-11-11T03:30:52;43.80;;;39.80;;
11514;SDS011;5814;41.936;25.556;2022-11-11T03:33:18;45.40;;;40.87;;
11514;SDS011;5814;41.936;25.556;2022-11-11T03:35:45;43.77;;;39.57;;
11514;SDS011;5814;41.936;25.556;2022-11-11T03:38:13;44.70;;;40.67;;
11514;SDS011;5814;41.936;25.556;2022-11-11T03:40:42;48.33;;;43.17;;
11514;SDS011;5814;41.936;25.556;2022-11-11T03:43:09;44.17;;;40.17;;
11514;SDS011;5814;41.936;25.556;2022-11-11T03:45:36;43.53;;;39.73;;
11514;SDS011;5814;41.936;25.556;2022-11-11T03:48:04;42.57;;;38.87;;
11514;SDS011;5814;41.936;25.556;2022-11-11T03:50:32;44.53;;;40.47;;
11514;SDS011;5814;41.936;25.556;2022-11-11T03:52:59;44.30;;;40.23;;
11514;SDS011;5814;41.936;25.556;2022-11-11T03:55:26;45.87;;;41.70;;
11514;SDS011;5814;41.936;25.556;2022-11-11T03:57:53;43.83;;;39.80;;
11514;SDS011;5814;41.936;25.556;2022-11-11T04:00:21;46.10;;;41.70;;
11514;SDS011;5814;41.936;25.556;2022-11-11T04:02:48;45.90;;;41.50;;
11514;SDS011;5814;41.936;25.556;2022-11-11T04:05:20;45.10;;;41.07;;
11514;SDS011;5814;41.936;25.556;2022-11-11T04:07:53;44.53;;;40.50;;
11514;SDS011;5814;41.936;25.556;2022-11-11T04:10:26;47.43;;;42.80;;
11514;SDS011;5814;41.936;25.556;2022-11-11T04:12:53;47.03;;;42.07;;
11514;SDS011;5814;41.936;25.556;2022-11-11T04:15:25;44.70;;;40.53;;
11514;SDS011;5814;41.936;25.556;2022-11-11T04:17:58;43.70;;;39.53;;
11514;SDS011;5814;41.936;25.556;2022-11-11T04:20:25;46.37;;;41.63;;
11514;SDS011;5814;41.936;25.556;2022-11-11T04:22:58;43.20;;;38.90;;
11514;SDS011;5814;41.936;25.556;2022-11-11T04:25:25;40.83;;;37.33;;
11514;SDS011;5814;41.936;25.556;2022-11-11T04:27:58;44.57;;;40.57;;
11514;SDS011;5814;41.936;25.556;2022-11-11T04:30:30;44.50;;;40.33;;
11514;SDS011;5814;41.936;25.556;2022-11-11T04:32:58;43.00;;;39.23;;
11514;SDS011;5814;41.936;25.556;2022-11-11T04:35:25;42.33;;;38.47;;
11514;SDS011;5814;41.936;25.556;2022-11-11T04:37:52;46.50;;;41.63;;
11514;SDS011;5814;41.936;25.556;2022-11-11T04:40:19;43.83;;;39.73;;
11514;SDS011;5814;41.936;25.556;2022-11-11T04:42:52;45.40;;;41.20;;
11514;SDS011;5814;41.936;25.556;2022-11-11T04:45:19;45.37;;;41.17;;
11514;SDS011;5814;41.936;25.556;2022-11-11T04:47:56;42.97;;;39.17;;
11514;SDS011;5814;41.936;25.556;2022-11-11T04:50:24;43.03;;;39.03;;
11514;SDS011;5814;41.936;25.556;2022-11-11T04:52:51;43.63;;;39.63;;
11514;SDS011;5814;41.936;25.556;2022-11-11T04:55:18;43.67;;;39.63;;
11514;SDS011;5814;41.936;25.556;2022-11-11T04:57:50;43.90;;;39.90;;
11514;SDS011;5814;41.936;25.556;2022-11-11T05:00:18;43.63;;;39.60;;
11514;SDS011;5814;41.936;25.556;2022-11-11T05:02:45;46.07;;;41.20;;
11514;SDS011;5814;41.936;25.556;2022-11-11T05:05:17;42.67;;;38.87;;
11514;SDS011;5814;41.936;25.556;2022-11-11T05:07:45;46.07;;;41.67;;
11514;SDS011;5814;41.936;25.556;2022-11-11T05:10:31;46.23;;;41.77;;
11514;SDS011;5814;41.936;25.556;2022-11-11T05:12:58;47.37;;;42.80;;
11514;SDS011;5814;41.936;25.556;2022-11-11T05:15:30;48.17;;;43.13;;
11514;SDS011;5814;41.936;25.556;2022-11-11T05:18:03;45.93;;;41.47;;
11514;SDS011;5814;41.936;25.556;2022-11-11T05:20:36;46.50;;;41.77;;
11514;SDS011;5814;41.936;25.556;2022-11-11T05:23:08;47.30;;;42.33;;
11514;SDS011;5814;41.936;25.556;2022-11-11T05:25:36;48.67;;;44.20;;
11514;SDS011;5814;41.936;25.556;2022-11-11T05:28:03;47.63;;;43.13;;
11514;SDS011;5814;41.936;25.556;2022-11-11T05:30:30;52.00;;;43.23;;
11514;SDS011;5814;41.936;25.556;2022-11-11T05:32:57;47.93;;;43.00;;
11514;SDS011;5814;41.936;25.556;2022-11-11T05:35:24;46.40;;;42.10;;
11514;SDS011;5814;41.936;25.556;2022-11-11T05:37:52;46.67;;;41.83;;
11514;SDS011;5814;41.936;25.556;2022-11-11T05:40:24;45.60;;;41.00;;
11514;SDS011;5814;41.936;25.556;2022-11-11T05:42:51;46.33;;;42.17;;
11514;SDS011;5814;41.936;25.556;2022-11-11T05:45:18;50.27;;;44.47;;
11514;SDS011;5814;41.936;25.556;2022-11-11T05:47:46;47.03;;;41.97;;
11514;SDS011;5814;41.936;25.556;2022-11-11T05:50:13;49.53;;;44.50;;
11514;SDS011;5814;41.936;25.556;2022-11-11T05:52:46;46.87;;;42.07;;
11514;SDS011;5814;41.936;25.556;2022-11-11T05:55:15;45.20;;;40.77;;
11514;SDS011;5814;41.936;25.556;2022-11-11T05:57:43;47.20;;;42.17;;
11514;SDS011;5814;41.936;25.556;2022-11-11T06:00:10;47.20;;;42.43;;
11514;SDS011;5814;41.936;25.556;2022-11-11T06:02:38;51.20;;;41.23;;
11514;SDS011;5814;41.936;25.556;2022-11-11T06:05:05;49.27;;;44.13;;
11514;SDS011;5814;41.936;25.556;2022-11-11T06:07:33;47.47;;;42.57;;
11514;SDS011;5814;41.936;25.556;2022-11-11T06:10:00;45.53;;;40.93;;
11514;SDS011;5814;41.936;25.556;2022-11-11T06:12:27;44.83;;;39.90;;
11514;SDS011;5814;41.936;25.556;2022-11-11T06:14:54;46.07;;;40.57;;
11514;SDS011;5814;41.936;25.556;2022-11-11T06:17:21;44.43;;;39.83;;
11514;SDS011;5814;41.936;25.556;2022-11-11T06:19:48;43.70;;;39.20;;
11514;SDS011;5814;41.936;25.556;2022-11-11T06:22:15;41.23;;;37.33;;
11514;SDS011;5814;41.936;25.556;2022-11-11T06:24:43;43.83;;;38.93;;
11514;SDS011;5814;41.936;25.556;2022-11-11T06:27:10;46.07;;;41.13;;
11514;SDS011;5814;41.936;25.556;2022-11-11T06:29:37;45.67;;;41.13;;
11514;SDS011;5814;41.936;25.556;2022-11-11T06:32:04;46.20;;;40.40;;
11514;SDS011;5814;41.936;25.556;2022-11-11T06:34:31;45.53;;;40.73;;
11514;SDS011;5814;41.936;25.556;2022-11-11T06:36:58;45.77;;;40.90;;
11514;SDS011;5814;41.936;25.556;2022-11-11T06:39:26;49.53;;;40.80;;
11514;SDS011;5814;41.936;25.556;2022-11-11T06:41:53;49.77;;;44.13;;
11514;SDS011;5814;41.936;25.556;2022-11-11T06:44:20;58.00;;;50.63;;
11514;SDS011;5814;41.936;25.556;2022-11-11T06:46:47;55.83;;;47.30;;
11514;SDS011;5814;41.936;25.556;2022-11-11T06:49:14;51.60;;;46.30;;
11514;SDS011;5814;41.936;25.556;2022-11-11T06:51:41;53.23;;;44.37;;
11514;SDS011;5814;41.936;25.556;2022-11-11T06:54:09;48.83;;;43.67;;
11514;SDS011;5814;41.936;25.556;2022-11-11T06:56:36;52.10;;;43.53;;
11514;SDS011;5814;41.936;25.556;2022-11-11T06:59:03;51.60;;;43.80;;
11514;SDS011;5814;41.936;25.556;2022-11-11T07:01:30;56.43;;;44.70;;
11514;SDS011;5814;41.936;25.556;2022-11-11T07:03:58;50.10;;;43.17;;
11514;SDS011;5814;41.936;25.556;2022-11-11T07:06:25;51.63;;;41.90;;
11514;SDS011;5814;41.936;25.556;2022-11-11T07:08:52;52.87;;;45.57;;
11514;SDS011;5814;41.936;25.556;2022-11-11T07:11:19;66.20;;;52.63;;
11514;SDS011;5814;41.936;25.556;2022-11-11T07:13:46;54.53;;;43.37;;
11514;SDS011;5814;41.936;25.556;2022-11-11T07:16:13;56.03;;;40.60;;
11514;SDS011;5814;41.936;25.556;2022-11-11T07:18:41;51.87;;;40.00;;
11514;SDS011;5814;41.936;25.556;2022-11-11T07:21:08;49.13;;;41.30;;
11514;SDS011;5814;41.936;25.556;2022-11-11T07:23:35;47.27;;;39.23;;
11514;SDS011;5814;41.936;25.556;2022-11-11T07:26:02;42.70;;;36.67;;
11514;SDS011;5814;41.936;25.556;2022-11-11T07:28:29;48.00;;;38.07;;
11514;SDS011;5814;41.936;25.556;2022-11-11T07:30:56;40.23;;;35.90;;
11514;SDS011;5814;41.936;25.556;2022-11-11T07:33:24;39.93;;;35.63;;
11514;SDS011;5814;41.936;25.556;2022-11-11T07:35:51;40.10;;;31.80;;
11514;SDS011;5814;41.936;25.556;2022-11-11T07:38:18;38.17;;;33.10;;
11514;SDS011;5814;41.936;25.556;2022-11-11T07:40:45;41.23;;;35.07;;
11514;SDS011;5814;41.936;25.556;2022-11-11T07:43:12;34.37;;;30.33;;
11514;SDS011;5814;41.936;25.556;2022-11-11T07:45:39;35.77;;;31.97;;
11514;SDS011;5814;41.936;25.556;2022-11-11T07:48:07;37.80;;;31.90;;
11514;SDS011;5814;41.936;25.556;2022-11-11T07:50:34;38.67;;;32.47;;
11514;SDS011;5814;41.936;25.556;2022-11-11T07:53:01;42.10;;;33.67;;
11514;SDS011;5814;41.936;25.556;2022-11-11T07:55:28;38.67;;;30.93;;
11514;SDS011;5814;41.936;25.556;2022-11-11T07:57:56;35.90;;;32.10;;
11514;SDS011;5814;41.936;25.556;2022-11-11T08:00:24;34.93;;;31.13;;
11514;SDS011;5814;41.936;25.556;2022-11-11T08:02:51;37.57;;;30.80;;
11514;SDS011;5814;41.936;25.556;2022-11-11T08:05:18;38.10;;;30.40;;
11514;SDS011;5814;41.936;25.556;2022-11-11T08:07:45;40.83;;;30.93;;
11514;SDS011;5814;41.936;25.556;2022-11-11T08:10:12;31.97;;;26.13;;
11514;SDS011;5814;41.936;25.556;2022-11-11T08:12:39;37.33;;;29.60;;
11514;SDS011;5814;41.936;25.556;2022-11-11T08:15:12;38.80;;;28.77;;
11514;SDS011;5814;41.936;25.556;2022-11-11T08:17:39;33.33;;;26.53;;
11514;SDS011;5814;41.936;25.556;2022-11-11T08:20:07;37.40;;;30.63;;
11514;SDS011;5814;41.936;25.556;2022-11-11T08:22:37;35.07;;;28.73;;
11514;SDS011;5814;41.936;25.556;2022-11-11T08:25:05;34.10;;;29.93;;
11514;SDS011;5814;41.936;25.556;2022-11-11T08:27:33;39.73;;;31.43;;
11514;SDS011;5814;41.936;25.556;2022-11-11T08:30:00;37.20;;;33.30;;
11514;SDS011;5814;41.936;25.556;2022-11-11T08:32:28;31.75;;;28.58;;
11514;SDS011;5814;41.936;25.556;2022-11-11T08:34:55;34.33;;;30.07;;
11514;SDS011;5814;41.936;25.556;2022-11-11T08:37:22;43.93;;;30.30;;
11514;SDS011;5814;41.936;25.556;2022-11-11T08:39:49;32.47;;;28.97;;
11514;SDS011;5814;41.936;25.556;2022-11-11T08:42:17;34.80;;;29.57;;
11514;SDS011;5814;41.936;25.556;2022-11-11T08:44:44;32.30;;;28.93;;
11514;SDS011;5814;41.936;25.556;2022-11-11T08:47:11;38.37;;;34.47;;
11514;SDS011;5814;41.936;25.556;2022-11-11T08:49:38;32.23;;;29.03;;
11514;SDS011;5814;41.936;25.556;2022-11-11T08:52:05;27.97;;;25.00;;
11514;SDS011;5814;41.936;25.556;2022-11-11T08:54:33;30.73;;;27.43;;
11514;SDS011;5814;41.936;25.556;2022-11-11T08:57:00;30.77;;;27.47;;
11514;SDS011;5814;41.936;25.556;2022-11-11T08:59:27;29.10;;;26.27;;
11514;SDS011;5814;41.936;25.556;2022-11-11T09:01:54;29.20;;;26.03;;
11514;SDS011;5814;41.936;25.556;2022-11-11T09:04:21;29.10;;;26.10;;
11514;SDS011;5814;41.936;25.556;2022-11-11T09:06:49;31.17;;;27.87;;
11514;SDS011;5814;41.936;25.556;2022-11-11T09:09:16;44.40;;;33.20;;
11514;SDS011;5814;41.936;25.556;2022-11-11T09:11:43;29.50;;;26.57;;
11514;SDS011;5814;41.936;25.556;2022-11-11T09:14:10;36.70;;;30.00;;
11514;SDS011;5814;41.936;25.556;2022-11-11T09:16:37;37.80;;;33.70;;
11514;SDS011;5814;41.936;25.556;2022-11-11T09:19:04;30.95;;;27.62;;
11514;SDS011;5814;41.936;25.556;2022-11-11T09:21:32;29.27;;;26.17;;
11514;SDS011;5814;41.936;25.556;2022-11-11T09:23:59;28.48;;;25.40;;
11514;SDS011;5814;41.936;25.556;2022-11-11T09:26:26;30.65;;;24.98;;
11514;SDS011;5814;41.936;25.556;2022-11-11T09:28:53;42.88;;;33.35;;
11514;SDS011;5814;41.936;25.556;2022-11-11T09:31:20;31.25;;;27.58;;
11514;SDS011;5814;41.936;25.556;2022-11-11T09:33:48;29.20;;;24.67;;
11514;SDS011;5814;41.936;25.556;2022-11-11T09:36:16;32.63;;;27.90;;
11514;SDS011;5814;41.936;25.556;2022-11-11T09:38:43;36.20;;;27.95;;
11514;SDS011;5814;41.936;25.556;2022-11-11T09:41:47;47.55;;;33.17;;
11514;SDS011;5814;41.936;25.556;2022-11-11T09:44:16;29.50;;;26.40;;
11514;SDS011;5814;41.936;25.556;2022-11-11T09:46:41;32.13;;;26.60;;
11514;SDS011;5814;41.936;25.556;2022-11-11T09:49:10;31.43;;;28.03;;
11514;SDS011;5814;41.936;25.556;2022-11-11T09:51:43;30.63;;;27.47;;
11514;SDS011;5814;41.936;25.556;2022-11-11T09:54:11;33.97;;;28.37;;
11514;SDS011;5814;41.936;25.556;2022-11-11T09:56:36;39.70;;;32.10;;
11514;SDS011;5814;41.936;25.556;2022-11-11T09:59:21;34.17;;;29.27;;
11514;SDS011;5814;41.936;25.556;2022-11-11T10:01:49;37.90;;;29.47;;
11514;SDS011;5814;41.936;25.556;2022-11-11T10:04:16;35.60;;;28.73;;
11514;SDS011;5814;41.936;25.556;2022-11-11T10:06:46;34.67;;;28.90;;
11514;SDS011;5814;41.936;25.556;2022-11-11T10:09:17;35.73;;;29.00;;
11514;SDS011;5814;41.936;25.556;2022-11-11T10:11:47;32.57;;;28.20;;
11514;SDS011;5814;41.936;25.556;2022-11-11T10:14:15;36.33;;;28.10;;
11514;SDS011;5814;41.936;25.556;2022-11-11T10:19:26;36.70;;;28.40;;
11514;SDS011;5814;41.936;25.556;2022-11-11T10:21:52;34.37;;;28.77;;
11514;SDS011;5814;41.936;25.556;2022-11-11T10:26:51;37.05;;;31.10;;
11514;SDS011;5814;41.936;25.556;2022-11-11T10:29:19;31.90;;;28.08;;
11514;SDS011;5814;41.936;25.556;2022-11-11T10:31:49;36.47;;;29.33;;
11514;SDS011;5814;41.936;25.556;2022-11-11T10:34:18;31.20;;;27.90;;
11514;SDS011;5814;41.936;25.556;2022-11-11T10:36:47;31.10;;;27.30;;
11514;SDS011;5814;41.936;25.556;2022-11-11T10:39:19;38.13;;;31.70;;
11514;SDS011;5814;41.936;25.556;2022-11-11T10:41:45;35.70;;;28.33;;
11514;SDS011;5814;41.936;25.556;2022-11-11T10:44:18;33.53;;;28.73;;
11514;SDS011;5814;41.936;25.556;2022-11-11T10:46:55;36.30;;;31.27;;
11514;SDS011;5814;41.936;25.556;2022-11-11T10:49:22;38.53;;;27.73;;
11514;SDS011;5814;41.936;25.556;2022-11-11T10:51:49;31.13;;;27.40;;
11514;SDS011;5814;41.936;25.556;2022-11-11T10:54:17;36.90;;;29.80;;
11514;SDS011;5814;41.936;25.556;2022-11-11T10:56:48;37.37;;;30.17;;
11514;SDS011;5814;41.936;25.556;2022-11-11T10:59:23;36.93;;;29.50;;
11514;SDS011;5814;41.936;25.556;2022-11-11T11:01:52;33.60;;;28.57;;
11514;SDS011;5814;41.936;25.556;2022-11-11T11:04:24;35.13;;;28.93;;
11514;SDS011;5814;41.936;25.556;2022-11-11T11:06:52;36.07;;;30.90;;
11514;SDS011;5814;41.936;25.556;2022-11-11T11:09:22;33.07;;;27.57;;
11514;SDS011;5814;41.936;25.556;2022-11-11T11:11:53;33.80;;;28.50;;
11514;SDS011;5814;41.936;25.556;2022-11-11T11:14:29;35.43;;;28.40;;
11514;SDS011;5814;41.936;25.556;2022-11-11T11:16:57;34.57;;;28.27;;
11514;SDS011;5814;41.936;25.556;2022-11-11T11:19:24;36.47;;;31.37;;
11514;SDS011;5814;41.936;25.556;2022-11-11T11:21:53;35.70;;;28.47;;
11514;SDS011;5814;41.936;25.556;2022-11-11T11:24:21;31.53;;;27.60;;
11514;SDS011;5814;41.936;25.556;2022-11-11T11:26:48;31.80;;;26.83;;
11514;SDS011;5814;41.936;25.556;2022-11-11T11:29:20;29.63;;;26.30;;
11514;SDS011;5814;41.936;25.556;2022-11-11T11:31:42;33.23;;;29.27;;
11514;SDS011;5814;41.936;25.556;2022-11-11T11:34:09;38.77;;;29.33;;
11514;SDS011;5814;41.936;25.556;2022-11-11T11:36:36;33.00;;;28.57;;
11514;SDS011;5814;41.936;25.556;2022-11-11T11:39:03;34.30;;;27.57;;
11514;SDS011;5814;41.936;25.556;2022-11-11T11:41:36;33.50;;;28.80;;
11514;SDS011;5814;41.936;25.556;2022-11-11T11:44:04;42.43;;;32.30;;
11514;SDS011;5814;41.936;25.556;2022-11-11T11:46:38;38.40;;;30.07;;
11514;SDS011;5814;41.936;25.556;2022-11-11T11:49:10;41.87;;;30.53;;
11514;SDS011;5814;41.936;25.556;2022-11-11T11:51:54;36.33;;;29.23;;
11514;SDS011;5814;41.936;25.556;2022-11-11T11:54:28;37.03;;;29.03;;
11514;SDS011;5814;41.936;25.556;2022-11-11T11:56:52;41.30;;;30.80;;
11514;SDS011;5814;41.936;25.556;2022-11-11T11:59:21;35.47;;;29.37;;
11514;SDS011;5814;41.936;25.556;2022-11-11T12:02:31;44.53;;;30.00;;
11514;SDS011;5814;41.936;25.556;2022-11-11T12:04:50;36.87;;;28.37;;
11514;SDS011;5814;41.936;25.556;2022-11-11T12:07:29;34.57;;;29.73;;
11514;SDS011;5814;41.936;25.556;2022-11-11T12:10:06;42.43;;;30.97;;
11514;SDS011;5814;41.936;25.556;2022-11-11T12:12:34;40.17;;;32.10;;
11514;SDS011;5814;41.936;25.556;2022-11-11T12:15:19;40.77;;;32.57;;
11514;SDS011;5814;41.936;25.556;2022-11-11T12:17:58;40.27;;;34.00;;
11514;SDS011;5814;41.936;25.556;2022-11-11T12:20:46;43.60;;;34.10;;
11514;SDS011;5814;41.936;25.556;2022-11-11T12:23:16;46.40;;;35.40;;
11514;SDS011;5814;41.936;25.556;2022-11-11T12:26:03;43.37;;;34.97;;
11514;SDS011;5814;41.936;25.556;2022-11-11T12:28:38;47.63;;;36.67;;
11514;SDS011;5814;41.936;25.556;2022-11-11T12:36:35;52.57;;;39.53;;
11514;SDS011;5814;41.936;25.556;2022-11-11T12:39:05;52.50;;;40.20;;
11514;SDS011;5814;41.936;25.556;2022-11-11T12:44:36;50.30;;;40.37;;
11514;SDS011;5814;41.936;25.556;2022-11-11T12:47:19;49.67;;;41.10;;
11514;SDS011;5814;41.936;25.556;2022-11-11T12:49:52;54.67;;;43.77;;
11514;SDS011;5814;41.936;25.556;2022-11-11T12:52:33;58.77;;;45.50;;
11514;SDS011;5814;41.936;25.556;2022-11-11T12:55:16;62.03;;;45.60;;
11514;SDS011;5814;41.936;25.556;2022-11-11T12:57:58;61.47;;;49.67;;
11514;SDS011;5814;41.936;25.556;2022-11-11T13:00:23;57.10;;;47.00;;
11514;SDS011;5814;41.936;25.556;2022-11-11T13:05:47;60.70;;;48.77;;
11514;SDS011;5814;41.936;25.556;2022-11-11T13:08:37;61.50;;;51.57;;
11514;SDS011;5814;41.936;25.556;2022-11-11T13:11:08;63.40;;;53.00;;
11514;SDS011;5814;41.936;25.556;2022-11-11T13:13:47;67.43;;;52.03;;
11514;SDS011;5814;41.936;25.556;2022-11-11T13:16:10;64.83;;;54.07;;
11514;SDS011;5814;41.936;25.556;2022-11-11T13:18:55;63.03;;;53.60;;
11514;SDS011;5814;41.936;25.556;2022-11-11T13:21:23;71.73;;;55.40;;
11514;SDS011;5814;41.936;25.556;2022-11-11T13:23:48;68.43;;;55.10;;
11514;SDS011;5814;41.936;25.556;2022-11-11T13:26:26;66.60;;;54.93;;
11514;SDS011;5814;41.936;25.556;2022-11-11T13:29:27;72.83;;;57.83;;
11514;SDS011;5814;41.936;25.556;2022-11-11T13:32:01;70.07;;;58.00;;
11514;SDS011;5814;41.936;25.556;2022-11-11T13:34:28;73.87;;;61.20;;
11514;SDS011;5814;41.936;25.556;2022-11-11T13:36:55;74.60;;;62.40;;
11514;SDS011;5814;41.936;25.556;2022-11-11T13:39:25;78.67;;;60.80;;
11514;SDS011;5814;41.936;25.556;2022-11-11T13:41:51;74.03;;;61.07;;
11514;SDS011;5814;41.936;25.556;2022-11-11T13:44:19;71.00;;;57.17;;
11514;SDS011;5814;41.936;25.556;2022-11-11T13:46:45;72.63;;;57.80;;
11514;SDS011;5814;41.936;25.556;2022-11-11T13:54:24;75.73;;;64.33;;
11514;SDS011;5814;41.936;25.556;2022-11-11T13:56:50;74.30;;;59.23;;
11514;SDS011;5814;41.936;25.556;2022-11-11T13:59:21;72.73;;;60.00;;
11514;SDS011;5814;41.936;25.556;2022-11-11T14:01:48;72.60;;;58.90;;
11514;SDS011;5814;41.936;25.556;2022-11-11T14:04:15;78.07;;;61.63;;
11514;SDS011;5814;41.936;25.556;2022-11-11T14:06:50;73.23;;;62.33;;
11514;SDS011;5814;41.936;25.556;2022-11-11T14:14:44;67.33;;;56.03;;
11514;SDS011;5814;41.936;25.556;2022-11-11T14:17:12;71.77;;;56.27;;
11514;SDS011;5814;41.936;25.556;2022-11-11T14:19:39;67.97;;;54.23;;
11514;SDS011;5814;41.936;25.556;2022-11-11T14:24:45;64.90;;;50.47;;
11514;SDS011;5814;41.936;25.556;2022-11-11T14:27:14;64.50;;;52.27;;
11514;SDS011;5814;41.936;25.556;2022-11-11T14:29:48;70.40;;;56.73;;
11514;SDS011;5814;41.936;25.556;2022-11-11T14:32:34;62.17;;;51.50;;
11514;SDS011;5814;41.936;25.556;2022-11-11T14:37:42;61.37;;;50.13;;
11514;SDS011;5814;41.936;25.556;2022-11-11T14:40:08;58.83;;;48.20;;
11514;SDS011;5814;41.936;25.556;2022-11-11T14:45:50;55.27;;;48.80;;
11514;SDS011;5814;41.936;25.556;2022-11-11T14:50:55;50.03;;;44.27;;
11514;SDS011;5814;41.936;25.556;2022-11-11T14:53:24;51.70;;;46.03;;
11514;SDS011;5814;41.936;25.556;2022-11-11T14:55:51;52.17;;;43.10;;
11514;SDS011;5814;41.936;25.556;2022-11-11T14:58:19;45.33;;;40.73;;
11514;SDS011;5814;41.936;25.556;2022-11-11T15:00:49;47.30;;;41.33;;
11514;SDS011;5814;41.936;25.556;2022-11-11T15:03:22;47.03;;;38.97;;
11514;SDS011;5814;41.936;25.556;2022-11-11T15:08:37;35.93;;;32.10;;
11514;SDS011;5814;41.936;25.556;2022-11-11T15:11:12;32.37;;;28.87;;
11514;SDS011;5814;41.936;25.556;2022-11-11T15:13:44;27.97;;;25.27;;
11514;SDS011;5814;41.936;25.556;2022-11-11T15:16:22;26.87;;;24.37;;